Pure Adrenalin — VJD3680 — position and weather

sailwx.info

Track history (hours):
 
Tides and Currents Weather Stations Pressure Air Temp Water Temp Dewpoint Dewpoint Depression Visibility Wind Speed Wind Dir Waves Ship Positions

Pure Adrenalin

Last reported at 2016-Feb-14 12:29 UTC. Time now 2016-Feb-14 12:42 UTC.
Position S 20°38' E 117°12'.

Length 21 m.

Type: Ship. MMSI: 503642100.

Date/timePositionNaut miles runAvg speedWind from/ knotsBaromVisibWave heightAir tempDewpointWater temp
2016-Feb-14 12:29S 20°38' E 117°12'0 0.0
2016-Feb-14 11:23S 20°38' E 117°12'0 0.0
2016-Feb-14 08:29S 20°38' E 117°12'0 0.0
2016-Feb-14 07:17S 20°38' E 117°12'0 0.0
2016-Feb-14 06:29S 20°38' E 117°12'8 8.7
2016-Feb-14 05:31S 20°34' E 117°19'8 3.6
2016-Feb-14 03:10S 20°38' E 117°12'0 0.0
2016-Feb-14 02:04S 20°38' E 117°12'0 0.0
2016-Feb-14 01:28S 20°38' E 117°12'0 0.0
2016-Feb-14 00:28S 20°38' E 117°12'0 0.0
2016-Feb-13 23:22S 20°38' E 117°12'0 0.0
2016-Feb-13 22:28S 20°38' E 117°12'0 0.0
2016-Feb-13 21:16S 20°38' E 117°12'0 0.0
2016-Feb-13 20:28S 20°38' E 117°12'0 0.0
2016-Feb-13 19:28S 20°38' E 117°12'0 0.0
2016-Feb-13 18:28S 20°38' E 117°12'0 0.0
2016-Feb-13 17:28S 20°38' E 117°12'0 0.0
2016-Feb-13 15:28S 20°38' E 117°12'0 0.0
2016-Feb-13 14:16S 20°38' E 117°12'0 0.0
2016-Feb-13 13:28S 20°38' E 117°12'0 0.0
2016-Feb-13 11:28S 20°38' E 117°12'0 0.0
2016-Feb-13 10:10S 20°38' E 117°12'0 0.0
2016-Feb-13 08:22S 20°38' E 117°12'0 0.0
2016-Feb-13 07:22S 20°38' E 117°12'0 0.2
2016-Feb-13 06:22S 20°38' E 117°12'6 3.1
2016-Feb-13 04:23S 20°35' E 117°17'6 6.7
2016-Feb-13 03:28S 20°38' E 117°12'0 0.0
2016-Feb-13 02:04S 20°38' E 117°12'0 0.0
2016-Feb-13 00:28S 20°38' E 117°12'0 0.0
2016-Feb-12 21:28S 20°38' E 117°12'0 0.0
2016-Feb-12 20:28S 20°38' E 117°12'0 0.0
2016-Feb-12 19:28S 20°38' E 117°12'0 0.0
2016-Feb-12 16:28S 20°38' E 117°12'0 0.0
2016-Feb-12 15:28S 20°38' E 117°12'0 0.0
2016-Feb-12 13:28S 20°38' E 117°12'0 0.0
2016-Feb-12 11:28S 20°38' E 117°12'0 0.0
2016-Feb-12 10:10S 20°38' E 117°12'0 0.0
2016-Feb-12 09:28S 20°38' E 117°12'0 0.0
2016-Feb-12 08:22S 20°38' E 117°12'0 0.0
2016-Feb-12 06:22S 20°38' E 117°12'0 0.0
2016-Feb-12 04:10S 20°38' E 117°12'0 0.0
2016-Feb-12 01:28S 20°38' E 117°12'0 0.0
2016-Feb-12 00:10S 20°38' E 117°12'0 0.0
2016-Feb-11 23:28S 20°38' E 117°12'0 0.0
2016-Feb-11 18:28S 20°38' E 117°12'0 0.0
2016-Feb-11 17:28S 20°38' E 117°12'0 0.0
2016-Feb-11 16:10S 20°38' E 117°12'0 0.0
2016-Feb-11 14:04S 20°38' E 117°12'0 0.0
2016-Feb-11 13:22S 20°38' E 117°12'0 0.0
2016-Feb-11 12:28S 20°38' E 117°12'0 0.0
2016-Feb-11 11:10S 20°38' E 117°12'0 0.0
2016-Feb-11 10:28S 20°38' E 117°12'0 0.0
2016-Feb-11 09:28S 20°38' E 117°12'0 0.1
2016-Feb-11 08:29S 20°38' E 117°12'3 3.1
2016-Feb-11 07:28S 20°35' E 117°11'2 2.5
2016-Feb-11 06:33S 20°37' E 117°12'2 0.7
2016-Feb-11 04:25S 20°38' E 117°12'0 0.0
2016-Feb-11 03:31S 20°38' E 117°12'0 0.0
2016-Feb-11 02:31S 20°38' E 117°12'0 0.0
2016-Feb-11 01:31S 20°38' E 117°12'0 0.0
2016-Feb-11 00:31S 20°38' E 117°12'0 0.0
2016-Feb-10 23:31S 20°38' E 117°12'0 0.0
2016-Feb-10 21:31S 20°38' E 117°12'0 0.0
2016-Feb-10 20:25S 20°38' E 117°12'0 0.0
2016-Feb-10 19:31S 20°38' E 117°12'0 0.0
2016-Feb-10 18:31S 20°38' E 117°12'0 0.0
2016-Feb-10 17:31S 20°38' E 117°12'0 0.0
2016-Feb-10 16:25S 20°38' E 117°12'0 0.0
2016-Feb-10 15:13S 20°38' E 117°12'0 0.0
2016-Feb-10 14:31S 20°38' E 117°12'0 0.0
2016-Feb-10 13:31S 20°38' E 117°12'0 0.0
2016-Feb-10 12:25S 20°38' E 117°12'0 0.0
2016-Feb-09 12:31S 20°38' E 117°12'0 0.0
2016-Feb-09 10:19S 20°38' E 117°12'0 0.0
2016-Feb-09 09:25S 20°38' E 117°12'0 0.0
2016-Feb-09 08:19S 20°38' E 117°12'0 0.0
2016-Feb-09 07:25S 20°38' E 117°12'0 0.0
2016-Feb-09 06:13S 20°38' E 117°12'0 0.0
2016-Feb-09 05:31S 20°38' E 117°12'0 0.0
2016-Feb-09 04:19S 20°38' E 117°12'0 0.0
2016-Feb-09 03:25S 20°38' E 117°12'0 0.0
2016-Feb-09 02:31S 20°38' E 117°12'0 0.0
2016-Feb-09 01:25S 20°38' E 117°12'0 0.0
2016-Feb-09 00:31S 20°38' E 117°12'0 0.0
2016-Feb-08 23:25S 20°38' E 117°12'0 0.0
2016-Feb-08 22:31S 20°38' E 117°12'0 0.0
2016-Feb-08 21:31S 20°38' E 117°12'0 0.0
2016-Feb-08 20:31S 20°38' E 117°12'0 0.0
2016-Feb-08 19:31S 20°38' E 117°12'0 0.0
2016-Feb-08 18:07S 20°38' E 117°12'0 0.0
2016-Feb-08 17:31S 20°38' E 117°12'0 0.0
2016-Feb-08 16:25S 20°38' E 117°12'0 0.0
2016-Feb-08 15:25S 20°38' E 117°12'0 0.0
2016-Feb-08 14:25S 20°38' E 117°12'0 0.0
2016-Feb-08 13:19S 20°38' E 117°12'0 0.0
2016-Feb-08 11:31S 20°38' E 117°12'0 0.0
2016-Feb-08 10:31S 20°38' E 117°12'0 0.0
2016-Feb-08 07:13S 20°38' E 117°12'0 0.0
2016-Feb-08 05:25S 20°38' E 117°12'0 0.0
2016-Feb-08 04:25S 20°38' E 117°12'0 0.0
2016-Feb-08 03:31S 20°38' E 117°12'0 0.0
2016-Feb-08 02:31S 20°38' E 117°12'0 0.0
2016-Feb-08 01:07S 20°38' E 117°12'0 0.0
2016-Feb-08 00:31S 20°38' E 117°12'0 0.0
2016-Feb-07 22:25S 20°38' E 117°12'0 0.0
2016-Feb-07 21:31S 20°38' E 117°12'0 0.0
2016-Feb-07 20:25S 20°38' E 117°12'0 0.0
2016-Feb-07 19:31S 20°38' E 117°12'0 0.0
2016-Feb-07 18:25S 20°38' E 117°12'0 0.0
2016-Feb-07 17:25S 20°38' E 117°12'0 0.0
2016-Feb-07 16:13S 20°38' E 117°12'0 0.0
2016-Feb-07 15:25S 20°38' E 117°12'0 0.0
2016-Feb-06 04:10S 20°38' E 117°12'0 0.0
2016-Feb-06 03:19S 20°38' E 117°12'0 0.0
2016-Feb-06 02:31S 20°38' E 117°12'0 0.0
2016-Feb-06 01:25S 20°38' E 117°12'0 0.0
2016-Feb-05 23:16S 20°38' E 117°12'0 0.0
2016-Feb-05 22:04S 20°38' E 117°12'0 0.0
2016-Feb-05 21:28S 20°38' E 117°12'0 0.0
2016-Feb-05 20:22S 20°38' E 117°12'0 0.0
2016-Feb-05 19:16S 20°38' E 117°12'0 0.0
2016-Feb-05 18:16S 20°38' E 117°12'0 0.0
2016-Feb-05 17:22S 20°38' E 117°12'0 0.0
2016-Feb-05 16:28S 20°38' E 117°12'0 0.0
2016-Feb-05 15:28S 20°38' E 117°12'0 0.0
2016-Feb-05 14:28S 20°38' E 117°12'0 0.0
2016-Feb-05 13:28S 20°38' E 117°12'0 0.0
2016-Feb-05 12:28S 20°38' E 117°12'0 0.0
2016-Feb-05 11:22S 20°38' E 117°12'0 0.0
2016-Feb-05 10:16S 20°38' E 117°12'0 0.0
2016-Feb-05 09:28S 20°38' E 117°12'0 0.0
2016-Feb-05 08:28S 20°38' E 117°12'0 0.0
2016-Feb-05 07:28S 20°38' E 117°12'0 0.0
2016-Feb-05 06:28S 20°38' E 117°12'0 0.0
2016-Feb-05 05:28S 20°38' E 117°12'0 0.0
2016-Feb-05 04:28S 20°38' E 117°12'0 0.0
2016-Feb-05 02:22S 20°38' E 117°12'0 0.0
2016-Feb-05 01:28S 20°38' E 117°12'0 0.0
2016-Feb-05 00:28S 20°38' E 117°12'0 0.0
2016-Feb-04 23:16S 20°38' E 117°12'0 0.0
2016-Feb-04 22:28S 20°38' E 117°12'0 0.0
2016-Feb-04 21:28S 20°38' E 117°12'0 0.0
2016-Feb-04 20:22S 20°38' E 117°12'0 0.0
2016-Feb-04 19:22S 20°38' E 117°12'0 0.0
2016-Feb-04 18:16S 20°38' E 117°12'0 0.0
2016-Feb-04 17:28S 20°38' E 117°12'0 0.0
2016-Feb-04 16:22S 20°38' E 117°12'0 0.0
2016-Feb-04 15:28S 20°38' E 117°12'0 0.0
2016-Feb-04 14:10S 20°38' E 117°12'0 0.0
2016-Feb-04 13:22S 20°38' E 117°12'  
Track history (hours):
 
Tides and Currents Weather Stations Pressure Air Temp Water Temp Dewpoint Dewpoint Depression Visibility Wind Speed Wind Dir Waves Ship Positions

Pure Adrenalin

Last reported at 2016-Feb-14 12:29 UTC. Time now 2016-Feb-14 12:42 UTC.
Position S 20°38' E 117°12'.

Length 21 m.

Type: Ship. MMSI: 503642100.

Date/timePositionNaut miles runAvg speedWind from/ knotsBaromVisibWave heightAir tempDewpointWater temp
2016-Feb-14 12:29S 20°38' E 117°12'0 0.0
2016-Feb-14 11:23S 20°38' E 117°12'0 0.0
2016-Feb-14 08:29S 20°38' E 117°12'0 0.0
2016-Feb-14 07:17S 20°38' E 117°12'0 0.0
2016-Feb-14 06:29S 20°38' E 117°12'8 8.7
2016-Feb-14 05:31S 20°34' E 117°19'8 3.6
2016-Feb-14 03:10S 20°38' E 117°12'0 0.0
2016-Feb-14 02:04S 20°38' E 117°12'0 0.0
2016-Feb-14 01:28S 20°38' E 117°12'0 0.0
2016-Feb-14 00:28S 20°38' E 117°12'0 0.0
2016-Feb-13 23:22S 20°38' E 117°12'0 0.0
2016-Feb-13 22:28S 20°38' E 117°12'0 0.0
2016-Feb-13 21:16S 20°38' E 117°12'0 0.0
2016-Feb-13 20:28S 20°38' E 117°12'0 0.0
2016-Feb-13 19:28S 20°38' E 117°12'0 0.0
2016-Feb-13 18:28S 20°38' E 117°12'0 0.0
2016-Feb-13 17:28S 20°38' E 117°12'0 0.0
2016-Feb-13 15:28S 20°38' E 117°12'0 0.0
2016-Feb-13 14:16S 20°38' E 117°12'0 0.0
2016-Feb-13 13:28S 20°38' E 117°12'0 0.0
2016-Feb-13 11:28S 20°38' E 117°12'0 0.0
2016-Feb-13 10:10S 20°38' E 117°12'0 0.0
2016-Feb-13 08:22S 20°38' E 117°12'0 0.0
2016-Feb-13 07:22S 20°38' E 117°12'0 0.2
2016-Feb-13 06:22S 20°38' E 117°12'6 3.1
2016-Feb-13 04:23S 20°35' E 117°17'6 6.7
2016-Feb-13 03:28S 20°38' E 117°12'0 0.0
2016-Feb-13 02:04S 20°38' E 117°12'0 0.0
2016-Feb-13 00:28S 20°38' E 117°12'0 0.0
2016-Feb-12 21:28S 20°38' E 117°12'0 0.0
2016-Feb-12 20:28S 20°38' E 117°12'0 0.0
2016-Feb-12 19:28S 20°38' E 117°12'0 0.0
2016-Feb-12 16:28S 20°38' E 117°12'0 0.0
2016-Feb-12 15:28S 20°38' E 117°12'0 0.0
2016-Feb-12 13:28S 20°38' E 117°12'0 0.0
2016-Feb-12 11:28S 20°38' E 117°12'0 0.0
2016-Feb-12 10:10S 20°38' E 117°12'0 0.0
2016-Feb-12 09:28S 20°38' E 117°12'0 0.0
2016-Feb-12 08:22S 20°38' E 117°12'0 0.0
2016-Feb-12 06:22S 20°38' E 117°12'0 0.0
2016-Feb-12 04:10S 20°38' E 117°12'0 0.0
2016-Feb-12 01:28S 20°38' E 117°12'0 0.0
2016-Feb-12 00:10S 20°38' E 117°12'0 0.0
2016-Feb-11 23:28S 20°38' E 117°12'0 0.0
2016-Feb-11 18:28S 20°38' E 117°12'0 0.0
2016-Feb-11 17:28S 20°38' E 117°12'0 0.0
2016-Feb-11 16:10S 20°38' E 117°12'0 0.0
2016-Feb-11 14:04S 20°38' E 117°12'0 0.0
2016-Feb-11 13:22S 20°38' E 117°12'0 0.0
2016-Feb-11 12:28S 20°38' E 117°12'0 0.0
2016-Feb-11 11:10S 20°38' E 117°12'0 0.0
2016-Feb-11 10:28S 20°38' E 117°12'0 0.0
2016-Feb-11 09:28S 20°38' E 117°12'0 0.1
2016-Feb-11 08:29S 20°38' E 117°12'3 3.1
2016-Feb-11 07:28S 20°35' E 117°11'2 2.5
2016-Feb-11 06:33S 20°37' E 117°12'2 0.7
2016-Feb-11 04:25S 20°38' E 117°12'0 0.0
2016-Feb-11 03:31S 20°38' E 117°12'0 0.0
2016-Feb-11 02:31S 20°38' E 117°12'0 0.0
2016-Feb-11 01:31S 20°38' E 117°12'0 0.0
2016-Feb-11 00:31S 20°38' E 117°12'0 0.0
2016-Feb-10 23:31S 20°38' E 117°12'0 0.0
2016-Feb-10 21:31S 20°38' E 117°12'0 0.0
2016-Feb-10 20:25S 20°38' E 117°12'0 0.0
2016-Feb-10 19:31S 20°38' E 117°12'0 0.0
2016-Feb-10 18:31S 20°38' E 117°12'0 0.0
2016-Feb-10 17:31S 20°38' E 117°12'0 0.0
2016-Feb-10 16:25S 20°38' E 117°12'0 0.0
2016-Feb-10 15:13S 20°38' E 117°12'0 0.0
2016-Feb-10 14:31S 20°38' E 117°12'0 0.0
2016-Feb-10 13:31S 20°38' E 117°12'0 0.0
2016-Feb-10 12:25S 20°38' E 117°12'0 0.0
2016-Feb-09 12:31S 20°38' E 117°12'0 0.0
2016-Feb-09 10:19S 20°38' E 117°12'0 0.0
2016-Feb-09 09:25S 20°38' E 117°12'0 0.0
2016-Feb-09 08:19S 20°38' E 117°12'0 0.0
2016-Feb-09 07:25S 20°38' E 117°12'0 0.0
2016-Feb-09 06:13S 20°38' E 117°12'0 0.0
2016-Feb-09 05:31S 20°38' E 117°12'0 0.0
2016-Feb-09 04:19S 20°38' E 117°12'0 0.0
2016-Feb-09 03:25S 20°38' E 117°12'0 0.0
2016-Feb-09 02:31S 20°38' E 117°12'0 0.0
2016-Feb-09 01:25S 20°38' E 117°12'0 0.0
2016-Feb-09 00:31S 20°38' E 117°12'0 0.0
2016-Feb-08 23:25S 20°38' E 117°12'0 0.0
2016-Feb-08 22:31S 20°38' E 117°12'0 0.0
2016-Feb-08 21:31S 20°38' E 117°12'0 0.0
2016-Feb-08 20:31S 20°38' E 117°12'0 0.0
2016-Feb-08 19:31S 20°38' E 117°12'0 0.0
2016-Feb-08 18:07S 20°38' E 117°12'0 0.0
2016-Feb-08 17:31S 20°38' E 117°12'0 0.0
2016-Feb-08 16:25S 20°38' E 117°12'0 0.0
2016-Feb-08 15:25S 20°38' E 117°12'0 0.0
2016-Feb-08 14:25S 20°38' E 117°12'0 0.0
2016-Feb-08 13:19S 20°38' E 117°12'0 0.0
2016-Feb-08 11:31S 20°38' E 117°12'0 0.0
2016-Feb-08 10:31S 20°38' E 117°12'0 0.0
2016-Feb-08 07:13S 20°38' E 117°12'0 0.0
2016-Feb-08 05:25S 20°38' E 117°12'0 0.0
2016-Feb-08 04:25S 20°38' E 117°12'0 0.0
2016-Feb-08 03:31S 20°38' E 117°12'0 0.0
2016-Feb-08 02:31S 20°38' E 117°12'0 0.0
2016-Feb-08 01:07S 20°38' E 117°12'0 0.0
2016-Feb-08 00:31S 20°38' E 117°12'0 0.0
2016-Feb-07 22:25S 20°38' E 117°12'0 0.0
2016-Feb-07 21:31S 20°38' E 117°12'0 0.0
2016-Feb-07 20:25S 20°38' E 117°12'0 0.0
2016-Feb-07 19:31S 20°38' E 117°12'0 0.0
2016-Feb-07 18:25S 20°38' E 117°12'0 0.0
2016-Feb-07 17:25S 20°38' E 117°12'0 0.0
2016-Feb-07 16:13S 20°38' E 117°12'0 0.0
2016-Feb-07 15:25S 20°38' E 117°12'0 0.0
2016-Feb-06 04:10S 20°38' E 117°12'0 0.0
2016-Feb-06 03:19S 20°38' E 117°12'0 0.0
2016-Feb-06 02:31S 20°38' E 117°12'0 0.0
2016-Feb-06 01:25S 20°38' E 117°12'0 0.0
2016-Feb-05 23:16S 20°38' E 117°12'0 0.0
2016-Feb-05 22:04S 20°38' E 117°12'0 0.0
2016-Feb-05 21:28S 20°38' E 117°12'0 0.0
2016-Feb-05 20:22S 20°38' E 117°12'0 0.0
2016-Feb-05 19:16S 20°38' E 117°12'0 0.0
2016-Feb-05 18:16S 20°38' E 117°12'0 0.0
2016-Feb-05 17:22S 20°38' E 117°12'0 0.0
2016-Feb-05 16:28S 20°38' E 117°12'0 0.0
2016-Feb-05 15:28S 20°38' E 117°12'0 0.0
2016-Feb-05 14:28S 20°38' E 117°12'0 0.0
2016-Feb-05 13:28S 20°38' E 117°12'0 0.0
2016-Feb-05 12:28S 20°38' E 117°12'0 0.0
2016-Feb-05 11:22S 20°38' E 117°12'0 0.0
2016-Feb-05 10:16S 20°38' E 117°12'0 0.0
2016-Feb-05 09:28S 20°38' E 117°12'0 0.0
2016-Feb-05 08:28S 20°38' E 117°12'0 0.0
2016-Feb-05 07:28S 20°38' E 117°12'0 0.0
2016-Feb-05 06:28S 20°38' E 117°12'0 0.0
2016-Feb-05 05:28S 20°38' E 117°12'0 0.0
2016-Feb-05 04:28S 20°38' E 117°12'0 0.0
2016-Feb-05 02:22S 20°38' E 117°12'0 0.0
2016-Feb-05 01:28S 20°38' E 117°12'0 0.0
2016-Feb-05 00:28S 20°38' E 117°12'0 0.0
2016-Feb-04 23:16S 20°38' E 117°12'0 0.0
2016-Feb-04 22:28S 20°38' E 117°12'0 0.0
2016-Feb-04 21:28S 20°38' E 117°12'0 0.0
2016-Feb-04 20:22S 20°38' E 117°12'0 0.0
2016-Feb-04 19:22S 20°38' E 117°12'0 0.0
2016-Feb-04 18:16S 20°38' E 117°12'0 0.0
2016-Feb-04 17:28S 20°38' E 117°12'0 0.0
2016-Feb-04 16:22S 20°38' E 117°12'0 0.0
2016-Feb-04 15:28S 20°38' E 117°12'0 0.0
2016-Feb-04 14:10S 20°38' E 117°12'0 0.0
2016-Feb-04 13:22S 20°38' E 117°12'  

Dump ship's entire track history